sensor_id;sensor_type;location;lat;lon;timestamp;temperature;humidity
59007;DHT22;44792;52.760;6.726;2022-12-01T00:00:44;6.10;99.90
59007;DHT22;44792;52.760;6.726;2022-12-01T00:03:12;6.10;99.90
59007;DHT22;44792;52.760;6.726;2022-12-01T00:05:37;6.20;99.90
59007;DHT22;44792;52.760;6.726;2022-12-01T00:08:03;6.10;99.90
59007;DHT22;44792;52.760;6.726;2022-12-01T00:10:32;6.20;99.90
59007;DHT22;44792;52.760;6.726;2022-12-01T00:13:00;6.20;99.90
59007;DHT22;44792;52.760;6.726;2022-12-01T00:15:29;6.20;99.90
59007;DHT22;44792;52.760;6.726;2022-12-01T00:17:55;6.10;99.90
59007;DHT22;44792;52.760;6.726;2022-12-01T00:20:22;6.20;99.90
59007;DHT22;44792;52.760;6.726;2022-12-01T00:22:48;6.10;99.90
59007;DHT22;44792;52.760;6.726;2022-12-01T00:25:16;6.20;99.90
59007;DHT22;44792;52.760;6.726;2022-12-01T00:27:42;6.20;99.90
59007;DHT22;44792;52.760;6.726;2022-12-01T00:30:11;6.20;99.90
59007;DHT22;44792;52.760;6.726;2022-12-01T00:32:37;6.20;99.90
59007;DHT22;44792;52.760;6.726;2022-12-01T00:35:04;6.20;99.90
59007;DHT22;44792;52.760;6.726;2022-12-01T00:37:30;6.20;99.90
59007;DHT22;44792;52.760;6.726;2022-12-01T00:39:57;6.20;99.90
59007;DHT22;44792;52.760;6.726;2022-12-01T00:42:23;6.20;99.90
59007;DHT22;44792;52.760;6.726;2022-12-01T00:44:48;6.20;99.90
59007;DHT22;44792;52.760;6.726;2022-12-01T00:47:14;6.20;99.90
59007;DHT22;44792;52.760;6.726;2022-12-01T00:49:40;6.20;99.90
59007;DHT22;44792;52.760;6.726;2022-12-01T00:52:06;6.20;99.90
59007;DHT22;44792;52.760;6.726;2022-12-01T00:54:32;6.20;99.90
59007;DHT22;44792;52.760;6.726;2022-12-01T00:56:58;6.20;99.90
59007;DHT22;44792;52.760;6.726;2022-12-01T00:59:24;6.20;99.90
59007;DHT22;44792;52.760;6.726;2022-12-01T01:01:50;6.20;99.90
59007;DHT22;44792;52.760;6.726;2022-12-01T01:04:16;6.20;99.90
59007;DHT22;44792;52.760;6.726;2022-12-01T01:06:41;6.20;99.90
59007;DHT22;44792;52.760;6.726;2022-12-01T01:09:11;6.20;99.90
59007;DHT22;44792;52.760;6.726;2022-12-01T01:11:37;6.20;99.90
59007;DHT22;44792;52.760;6.726;2022-12-01T01:14:03;6.20;99.90
59007;DHT22;44792;52.760;6.726;2022-12-01T01:16:29;6.20;99.90
59007;DHT22;44792;52.760;6.726;2022-12-01T01:18:55;6.20;99.90
59007;DHT22;44792;52.760;6.726;2022-12-01T01:21:22;6.20;99.90
59007;DHT22;44792;52.760;6.726;2022-12-01T01:23:48;6.20;99.90
59007;DHT22;44792;52.760;6.726;2022-12-01T01:26:24;6.20;99.90
59007;DHT22;44792;52.760;6.726;2022-12-01T01:28:51;6.20;99.90
59007;DHT22;44792;52.760;6.726;2022-12-01T01:31:19;6.20;99.90
59007;DHT22;44792;52.760;6.726;2022-12-01T01:33:46;6.20;99.90
59007;DHT22;44792;52.760;6.726;2022-12-01T01:36:12;6.20;99.90
59007;DHT22;44792;52.760;6.726;2022-12-01T01:38:37;6.20;99.90
59007;DHT22;44792;52.760;6.726;2022-12-01T01:41:04;6.20;99.90
59007;DHT22;44792;52.760;6.726;2022-12-01T01:43:47;6.20;99.90
59007;DHT22;44792;52.760;6.726;2022-12-01T01:46:18;6.20;99.90
59007;DHT22;44792;52.760;6.726;2022-12-01T01:48:47;6.20;99.90
59007;DHT22;44792;52.760;6.726;2022-12-01T01:51:16;6.20;99.90
59007;DHT22;44792;52.760;6.726;2022-12-01T01:53:42;6.20;99.90
59007;DHT22;44792;52.760;6.726;2022-12-01T01:56:09;6.20;99.90
59007;DHT22;44792;52.760;6.726;2022-12-01T01:58:36;6.20;99.90
59007;DHT22;44792;52.760;6.726;2022-12-01T02:01:02;6.20;99.90
59007;DHT22;44792;52.760;6.726;2022-12-01T02:03:28;6.20;99.90
59007;DHT22;44792;52.760;6.726;2022-12-01T02:05:54;6.20;99.90
59007;DHT22;44792;52.760;6.726;2022-12-01T02:08:20;6.20;99.90
59007;DHT22;44792;52.760;6.726;2022-12-01T02:11:14;6.20;99.90
59007;DHT22;44792;52.760;6.726;2022-12-01T02:14:07;6.20;99.90
59007;DHT22;44792;52.760;6.726;2022-12-01T02:25:17;6.20;99.90
59007;DHT22;44792;52.760;6.726;2022-12-01T02:33:03;6.20;99.90
59007;DHT22;44792;52.760;6.726;2022-12-01T02:35:38;6.20;99.90
59007;DHT22;44792;52.760;6.726;2022-12-01T02:38:12;6.20;99.90
59007;DHT22;44792;52.760;6.726;2022-12-01T02:46:45;6.20;99.90
59007;DHT22;44792;52.760;6.726;2022-12-01T02:48:42;6.20;99.90
59007;DHT22;44792;52.760;6.726;2022-12-01T02:51:21;6.20;99.90
59007;DHT22;44792;52.760;6.726;2022-12-01T02:53:47;6.20;99.90
59007;DHT22;44792;52.760;6.726;2022-12-01T02:56:14;6.20;99.90
59007;DHT22;44792;52.760;6.726;2022-12-01T02:58:44;6.20;99.90
59007;DHT22;44792;52.760;6.726;2022-12-01T03:12:35;6.10;99.90
59007;DHT22;44792;52.760;6.726;2022-12-01T03:15:11;6.20;99.90
59007;DHT22;44792;52.760;6.726;2022-12-01T03:21:31;6.20;99.90
59007;DHT22;44792;52.760;6.726;2022-12-01T03:23:52;6.20;99.90
59007;DHT22;44792;52.760;6.726;2022-12-01T03:26:20;6.20;99.90
59007;DHT22;44792;52.760;6.726;2022-12-01T03:29:02;6.10;99.90
59007;DHT22;44792;52.760;6.726;2022-12-01T03:31:37;6.10;99.90
59007;DHT22;44792;52.760;6.726;2022-12-01T03:37:01;6.10;99.90
59007;DHT22;44792;52.760;6.726;2022-12-01T03:39:30;6.10;99.90
59007;DHT22;44792;52.760;6.726;2022-12-01T03:42:02;6.10;99.90
59007;DHT22;44792;52.760;6.726;2022-12-01T03:44:35;6.10;99.90
59007;DHT22;44792;52.760;6.726;2022-12-01T03:47:08;6.10;99.90
59007;DHT22;44792;52.760;6.726;2022-12-01T03:49:35;6.10;99.90
59007;DHT22;44792;52.760;6.726;2022-12-01T03:55:10;6.10;99.90
59007;DHT22;44792;52.760;6.726;2022-12-01T03:57:43;6.10;99.90
59007;DHT22;44792;52.760;6.726;2022-12-01T04:00:11;6.10;99.90
59007;DHT22;44792;52.760;6.726;2022-12-01T04:02:37;6.10;99.90
59007;DHT22;44792;52.760;6.726;2022-12-01T04:05:04;6.10;99.90
59007;DHT22;44792;52.760;6.726;2022-12-01T04:07:30;6.10;99.90
59007;DHT22;44792;52.760;6.726;2022-12-01T04:09:56;6.10;99.90
59007;DHT22;44792;52.760;6.726;2022-12-01T04:12:21;6.10;99.90
59007;DHT22;44792;52.760;6.726;2022-12-01T04:15:07;6.10;99.90
59007;DHT22;44792;52.760;6.726;2022-12-01T04:17:34;6.10;99.90
59007;DHT22;44792;52.760;6.726;2022-12-01T04:20:00;6.10;99.90
59007;DHT22;44792;52.760;6.726;2022-12-01T04:22:26;6.10;99.90
59007;DHT22;44792;52.760;6.726;2022-12-01T04:24:53;6.10;99.90
59007;DHT22;44792;52.760;6.726;2022-12-01T04:27:18;6.10;99.90
59007;DHT22;44792;52.760;6.726;2022-12-01T04:29:44;6.10;99.90
59007;DHT22;44792;52.760;6.726;2022-12-01T04:32:10;6.10;99.90
59007;DHT22;44792;52.760;6.726;2022-12-01T04:34:36;6.10;99.90
59007;DHT22;44792;52.760;6.726;2022-12-01T04:37:05;6.10;99.90
59007;DHT22;44792;52.760;6.726;2022-12-01T04:39:32;6.10;99.90
59007;DHT22;44792;52.760;6.726;2022-12-01T04:41:58;6.10;99.90
59007;DHT22;44792;52.760;6.726;2022-12-01T04:44:24;6.10;99.90
59007;DHT22;44792;52.760;6.726;2022-12-01T04:46:52;6.10;99.90
59007;DHT22;44792;52.760;6.726;2022-12-01T04:49:19;6.10;99.90
59007;DHT22;44792;52.760;6.726;2022-12-01T04:51:45;6.10;99.90
59007;DHT22;44792;52.760;6.726;2022-12-01T04:54:11;6.10;99.90
59007;DHT22;44792;52.760;6.726;2022-12-01T04:56:37;6.10;99.90
59007;DHT22;44792;52.760;6.726;2022-12-01T04:59:02;6.10;99.90
59007;DHT22;44792;52.760;6.726;2022-12-01T05:01:28;6.10;99.90
59007;DHT22;44792;52.760;6.726;2022-12-01T05:03:53;6.10;99.90
59007;DHT22;44792;52.760;6.726;2022-12-01T05:06:24;6.10;99.90
59007;DHT22;44792;52.760;6.726;2022-12-01T05:08:53;6.10;99.90
59007;DHT22;44792;52.760;6.726;2022-12-01T05:11:19;6.10;99.90
59007;DHT22;44792;52.760;6.726;2022-12-01T05:13:46;6.10;99.90
59007;DHT22;44792;52.760;6.726;2022-12-01T05:16:16;6.10;99.90
59007;DHT22;44792;52.760;6.726;2022-12-01T05:18:46;6.10;99.90
59007;DHT22;44792;52.760;6.726;2022-12-01T05:21:12;6.10;99.90
59007;DHT22;44792;52.760;6.726;2022-12-01T05:23:38;6.10;99.90
59007;DHT22;44792;52.760;6.726;2022-12-01T05:26:05;6.10;99.90
59007;DHT22;44792;52.760;6.726;2022-12-01T05:28:31;6.10;99.90
59007;DHT22;44792;52.760;6.726;2022-12-01T05:30:57;6.10;99.90
59007;DHT22;44792;52.760;6.726;2022-12-01T05:33:24;6.10;99.90
59007;DHT22;44792;52.760;6.726;2022-12-01T05:35:50;6.10;99.90
59007;DHT22;44792;52.760;6.726;2022-12-01T05:38:17;6.10;99.90
59007;DHT22;44792;52.760;6.726;2022-12-01T05:40:48;6.10;99.90
59007;DHT22;44792;52.760;6.726;2022-12-01T05:43:14;6.10;99.90
59007;DHT22;44792;52.760;6.726;2022-12-01T05:45:40;6.10;99.90
59007;DHT22;44792;52.760;6.726;2022-12-01T05:48:05;6.10;99.90
59007;DHT22;44792;52.760;6.726;2022-12-01T05:50:31;6.10;99.90
59007;DHT22;44792;52.760;6.726;2022-12-01T05:52:56;6.10;99.90
59007;DHT22;44792;52.760;6.726;2022-12-01T05:55:22;6.00;99.90
59007;DHT22;44792;52.760;6.726;2022-12-01T05:57:48;6.10;99.90
59007;DHT22;44792;52.760;6.726;2022-12-01T06:00:14;6.10;99.90
59007;DHT22;44792;52.760;6.726;2022-12-01T06:02:40;6.00;99.90
59007;DHT22;44792;52.760;6.726;2022-12-01T06:05:06;6.00;99.90
59007;DHT22;44792;52.760;6.726;2022-12-01T06:07:32;6.00;99.90
59007;DHT22;44792;52.760;6.726;2022-12-01T06:09:59;6.00;99.90
59007;DHT22;44792;52.760;6.726;2022-12-01T06:12:25;6.00;99.90
59007;DHT22;44792;52.760;6.726;2022-12-01T06:14:50;6.00;99.90
59007;DHT22;44792;52.760;6.726;2022-12-01T06:17:16;6.00;99.90
59007;DHT22;44792;52.760;6.726;2022-12-01T06:19:41;6.00;99.90
59007;DHT22;44792;52.760;6.726;2022-12-01T06:22:08;6.00;99.90
59007;DHT22;44792;52.760;6.726;2022-12-01T06:24:34;6.00;99.90
59007;DHT22;44792;52.760;6.726;2022-12-01T06:26:59;6.00;99.90
59007;DHT22;44792;52.760;6.726;2022-12-01T06:29:25;6.00;99.90
59007;DHT22;44792;52.760;6.726;2022-12-01T06:31:50;6.00;99.90
59007;DHT22;44792;52.760;6.726;2022-12-01T06:34:16;6.00;99.90
59007;DHT22;44792;52.760;6.726;2022-12-01T06:36:41;6.00;99.90
59007;DHT22;44792;52.760;6.726;2022-12-01T06:39:08;6.00;99.90
59007;DHT22;44792;52.760;6.726;2022-12-01T06:41:37;6.00;99.90
59007;DHT22;44792;52.760;6.726;2022-12-01T06:44:03;6.00;99.90
59007;DHT22;44792;52.760;6.726;2022-12-01T06:46:29;6.00;99.90
59007;DHT22;44792;52.760;6.726;2022-12-01T06:48:55;6.00;99.90
59007;DHT22;44792;52.760;6.726;2022-12-01T06:51:21;6.10;99.90
59007;DHT22;44792;52.760;6.726;2022-12-01T06:53:46;6.00;99.90
59007;DHT22;44792;52.760;6.726;2022-12-01T06:56:12;6.00;99.90
59007;DHT22;44792;52.760;6.726;2022-12-01T06:58:37;6.00;99.90
59007;DHT22;44792;52.760;6.726;2022-12-01T07:01:08;6.00;99.90
59007;DHT22;44792;52.760;6.726;2022-12-01T07:03:34;6.00;99.90
59007;DHT22;44792;52.760;6.726;2022-12-01T07:06:00;6.00;99.90
59007;DHT22;44792;52.760;6.726;2022-12-01T07:08:28;6.00;99.90
59007;DHT22;44792;52.760;6.726;2022-12-01T07:13:23;6.00;99.90
59007;DHT22;44792;52.760;6.726;2022-12-01T07:15:48;6.00;99.90
59007;DHT22;44792;52.760;6.726;2022-12-01T07:18:14;6.00;99.90
59007;DHT22;44792;52.760;6.726;2022-12-01T07:20:39;6.00;99.90
59007;DHT22;44792;52.760;6.726;2022-12-01T07:23:05;6.00;99.90
59007;DHT22;44792;52.760;6.726;2022-12-01T07:25:30;6.00;99.90
59007;DHT22;44792;52.760;6.726;2022-12-01T07:27:56;6.00;99.90
59007;DHT22;44792;52.760;6.726;2022-12-01T07:30:21;6.00;99.90
59007;DHT22;44792;52.760;6.726;2022-12-01T07:32:47;6.00;99.90
59007;DHT22;44792;52.760;6.726;2022-12-01T07:35:12;6.00;99.90
59007;DHT22;44792;52.760;6.726;2022-12-01T07:37:38;6.00;99.90
59007;DHT22;44792;52.760;6.726;2022-12-01T07:40:04;6.00;99.90
59007;DHT22;44792;52.760;6.726;2022-12-01T07:42:30;6.00;99.90
59007;DHT22;44792;52.760;6.726;2022-12-01T07:44:56;6.00;99.90
59007;DHT22;44792;52.760;6.726;2022-12-01T07:47:21;6.00;99.90
59007;DHT22;44792;52.760;6.726;2022-12-01T07:49:47;6.00;99.90
59007;DHT22;44792;52.760;6.726;2022-12-01T07:52:12;6.00;99.90
59007;DHT22;44792;52.760;6.726;2022-12-01T07:54:38;6.00;99.90
59007;DHT22;44792;52.760;6.726;2022-12-01T07:57:03;6.00;99.90
59007;DHT22;44792;52.760;6.726;2022-12-01T07:59:29;6.10;99.90
59007;DHT22;44792;52.760;6.726;2022-12-01T08:01:54;6.00;99.90
59007;DHT22;44792;52.760;6.726;2022-12-01T08:04:20;6.10;99.90
59007;DHT22;44792;52.760;6.726;2022-12-01T08:06:45;6.10;99.90
59007;DHT22;44792;52.760;6.726;2022-12-01T08:09:11;6.10;99.90
59007;DHT22;44792;52.760;6.726;2022-12-01T08:11:37;6.10;99.90
59007;DHT22;44792;52.760;6.726;2022-12-01T08:14:02;6.10;99.90
59007;DHT22;44792;52.760;6.726;2022-12-01T08:16:28;6.00;99.90
59007;DHT22;44792;52.760;6.726;2022-12-01T08:18:55;6.10;99.90
59007;DHT22;44792;52.760;6.726;2022-12-01T08:21:22;6.10;99.90
59007;DHT22;44792;52.760;6.726;2022-12-01T08:23:52;6.10;99.90
59007;DHT22;44792;52.760;6.726;2022-12-01T08:26:19;6.10;99.90
59007;DHT22;44792;52.760;6.726;2022-12-01T08:28:45;6.10;99.90
59007;DHT22;44792;52.760;6.726;2022-12-01T08:33:37;6.10;99.90
59007;DHT22;44792;52.760;6.726;2022-12-01T08:36:03;6.20;99.90
59007;DHT22;44792;52.760;6.726;2022-12-01T08:38:29;6.20;99.90
59007;DHT22;44792;52.760;6.726;2022-12-01T08:41:07;6.20;99.90
59007;DHT22;44792;52.760;6.726;2022-12-01T08:43:33;6.20;99.90
59007;DHT22;44792;52.760;6.726;2022-12-01T08:46:04;6.20;99.90
59007;DHT22;44792;52.760;6.726;2022-12-01T08:48:30;6.20;99.90
59007;DHT22;44792;52.760;6.726;2022-12-01T08:51:10;6.20;99.90
59007;DHT22;44792;52.760;6.726;2022-12-01T08:53:38;6.20;99.90
59007;DHT22;44792;52.760;6.726;2022-12-01T08:56:07;6.20;99.90
59007;DHT22;44792;52.760;6.726;2022-12-01T08:58:33;6.20;99.90
59007;DHT22;44792;52.760;6.726;2022-12-01T09:01:04;6.20;99.90
59007;DHT22;44792;52.760;6.726;2022-12-01T09:03:30;6.30;99.90
59007;DHT22;44792;52.760;6.726;2022-12-01T09:06:22;6.30;99.90
59007;DHT22;44792;52.760;6.726;2022-12-01T09:08:47;6.30;99.90
59007;DHT22;44792;52.760;6.726;2022-12-01T09:11:17;6.30;99.90
59007;DHT22;44792;52.760;6.726;2022-12-01T09:13:44;6.30;99.90
59007;DHT22;44792;52.760;6.726;2022-12-01T09:16:14;6.30;99.90
59007;DHT22;44792;52.760;6.726;2022-12-01T09:18:41;6.30;99.90
59007;DHT22;44792;52.760;6.726;2022-12-01T09:21:24;6.30;99.90
59007;DHT22;44792;52.760;6.726;2022-12-01T09:23:50;6.30;99.90
59007;DHT22;44792;52.760;6.726;2022-12-01T09:26:17;6.30;99.90
59007;DHT22;44792;52.760;6.726;2022-12-01T09:28:48;6.30;99.90
59007;DHT22;44792;52.760;6.726;2022-12-01T09:31:15;6.30;99.90
59007;DHT22;44792;52.760;6.726;2022-12-01T09:33:41;6.40;99.90
59007;DHT22;44792;52.760;6.726;2022-12-01T09:36:07;6.40;99.90
59007;DHT22;44792;52.760;6.726;2022-12-01T09:38:34;6.40;99.90
59007;DHT22;44792;52.760;6.726;2022-12-01T09:41:04;6.40;99.90
59007;DHT22;44792;52.760;6.726;2022-12-01T09:46:35;6.40;99.90
59007;DHT22;44792;52.760;6.726;2022-12-01T09:49:03;6.40;99.90
59007;DHT22;44792;52.760;6.726;2022-12-01T09:51:32;6.40;99.90
59007;DHT22;44792;52.760;6.726;2022-12-01T09:54:00;6.50;99.90
59007;DHT22;44792;52.760;6.726;2022-12-01T09:56:28;6.50;99.90
59007;DHT22;44792;52.760;6.726;2022-12-01T09:59:00;6.50;99.90
59007;DHT22;44792;52.760;6.726;2022-12-01T10:01:38;6.50;99.90
59007;DHT22;44792;52.760;6.726;2022-12-01T10:04:16;6.50;99.90
59007;DHT22;44792;52.760;6.726;2022-12-01T10:12:14;6.50;99.90
59007;DHT22;44792;52.760;6.726;2022-12-01T10:14:42;6.60;99.90
59007;DHT22;44792;52.760;6.726;2022-12-01T10:17:39;6.60;99.90
59007;DHT22;44792;52.760;6.726;2022-12-01T10:20:21;6.60;99.90
59007;DHT22;44792;52.760;6.726;2022-12-01T10:28:28;6.60;99.90
59007;DHT22;44792;52.760;6.726;2022-12-01T10:31:04;6.60;99.90
59007;DHT22;44792;52.760;6.726;2022-12-01T10:33:36;6.70;99.90
59007;DHT22;44792;52.760;6.726;2022-12-01T10:36:04;6.70;99.90
59007;DHT22;44792;52.760;6.726;2022-12-01T10:38:34;6.80;99.90
59007;DHT22;44792;52.760;6.726;2022-12-01T10:41:01;6.70;99.90
59007;DHT22;44792;52.760;6.726;2022-12-01T10:43:33;6.70;99.90
59007;DHT22;44792;52.760;6.726;2022-12-01T10:46:10;6.80;99.90
59007;DHT22;44792;52.760;6.726;2022-12-01T10:48:57;6.70;99.90
59007;DHT22;44792;52.760;6.726;2022-12-01T10:51:24;6.70;99.90
59007;DHT22;44792;52.760;6.726;2022-12-01T10:53:57;6.70;99.90
59007;DHT22;44792;52.760;6.726;2022-12-01T10:56:22;6.80;99.90
59007;DHT22;44792;52.760;6.726;2022-12-01T10:58:51;6.80;99.90
59007;DHT22;44792;52.760;6.726;2022-12-01T11:01:28;6.80;99.90
59007;DHT22;44792;52.760;6.726;2022-12-01T11:04:21;6.80;99.90
59007;DHT22;44792;52.760;6.726;2022-12-01T11:06:51;6.80;99.90
59007;DHT22;44792;52.760;6.726;2022-12-01T11:09:20;6.70;99.90
59007;DHT22;44792;52.760;6.726;2022-12-01T11:11:56;6.80;99.90
59007;DHT22;44792;52.760;6.726;2022-12-01T11:14:47;6.80;99.90
59007;DHT22;44792;52.760;6.726;2022-12-01T11:19:57;6.80;99.90
59007;DHT22;44792;52.760;6.726;2022-12-01T11:22:30;6.80;99.90
59007;DHT22;44792;52.760;6.726;2022-12-01T11:25:00;6.80;99.90
59007;DHT22;44792;52.760;6.726;2022-12-01T11:27:29;6.90;99.90
59007;DHT22;44792;52.760;6.726;2022-12-01T11:30:24;6.90;99.90
59007;DHT22;44792;52.760;6.726;2022-12-01T11:32:57;6.90;99.90
59007;DHT22;44792;52.760;6.726;2022-12-01T11:35:26;6.90;99.90
59007;DHT22;44792;52.760;6.726;2022-12-01T11:37:56;7.00;99.90
59007;DHT22;44792;52.760;6.726;2022-12-01T11:40:49;7.00;99.90
59007;DHT22;44792;52.760;6.726;2022-12-01T11:43:30;7.00;99.90
59007;DHT22;44792;52.760;6.726;2022-12-01T11:45:58;6.90;99.90
59007;DHT22;44792;52.760;6.726;2022-12-01T11:48:27;6.90;99.90
59007;DHT22;44792;52.760;6.726;2022-12-01T11:53:35;7.00;99.90
59007;DHT22;44792;52.760;6.726;2022-12-01T11:56:20;6.90;99.90
59007;DHT22;44792;52.760;6.726;2022-12-01T11:58:49;6.90;99.90
59007;DHT22;44792;52.760;6.726;2022-12-01T12:09:45;6.90;99.90
59007;DHT22;44792;52.760;6.726;2022-12-01T12:12:44;6.90;99.90
59007;DHT22;44792;52.760;6.726;2022-12-01T12:44:02;7.00;99.90
59007;DHT22;44792;52.760;6.726;2022-12-01T12:49:38;7.00;99.90
59007;DHT22;44792;52.760;6.726;2022-12-01T12:54:57;7.00;99.90
59007;DHT22;44792;52.760;6.726;2022-12-01T12:57:34;7.00;99.90
59007;DHT22;44792;52.760;6.726;2022-12-01T13:00:23;7.00;99.90
59007;DHT22;44792;52.760;6.726;2022-12-01T13:05:41;7.00;99.90
59007;DHT22;44792;52.760;6.726;2022-12-01T13:14:41;6.90;99.90
59007;DHT22;44792;52.760;6.726;2022-12-01T13:19:42;7.00;99.90
59007;DHT22;44792;52.760;6.726;2022-12-01T13:22:11;7.00;99.90
59007;DHT22;44792;52.760;6.726;2022-12-01T13:24:38;7.00;99.90
59007;DHT22;44792;52.760;6.726;2022-12-01T13:27:17;7.00;99.90
59007;DHT22;44792;52.760;6.726;2022-12-01T13:29:48;6.90;99.90
59007;DHT22;44792;52.760;6.726;2022-12-01T13:34:55;7.00;99.90
59007;DHT22;44792;52.760;6.726;2022-12-01T13:37:29;7.00;99.90
59007;DHT22;44792;52.760;6.726;2022-12-01T13:40:21;7.00;99.90
59007;DHT22;44792;52.760;6.726;2022-12-01T13:45:20;7.00;99.90
59007;DHT22;44792;52.760;6.726;2022-12-01T14:03:59;7.00;99.90
59007;DHT22;44792;52.760;6.726;2022-12-01T14:06:47;6.90;99.90
59007;DHT22;44792;52.760;6.726;2022-12-01T14:09:31;7.20;99.90
59007;DHT22;44792;52.760;6.726;2022-12-01T14:12:03;7.00;99.90
59007;DHT22;44792;52.760;6.726;2022-12-01T14:14:36;7.00;99.90
59007;DHT22;44792;52.760;6.726;2022-12-01T14:17:03;7.00;99.90
59007;DHT22;44792;52.760;6.726;2022-12-01T14:19:49;7.00;99.90
59007;DHT22;44792;52.760;6.726;2022-12-01T14:22:38;6.90;99.90
59007;DHT22;44792;52.760;6.726;2022-12-01T14:27:47;6.90;99.90
59007;DHT22;44792;52.760;6.726;2022-12-01T14:38:42;6.90;99.90
59007;DHT22;44792;52.760;6.726;2022-12-01T14:41:09;6.90;99.90
59007;DHT22;44792;52.760;6.726;2022-12-01T14:43:40;6.90;99.90
59007;DHT22;44792;52.760;6.726;2022-12-01T14:46:32;7.00;99.90
59007;DHT22;44792;52.760;6.726;2022-12-01T14:49:01;6.90;99.90
59007;DHT22;44792;52.760;6.726;2022-12-01T14:51:33;6.90;99.90
59007;DHT22;44792;52.760;6.726;2022-12-01T14:54:03;6.90;99.90
59007;DHT22;44792;52.760;6.726;2022-12-01T14:56:33;6.90;99.90
59007;DHT22;44792;52.760;6.726;2022-12-01T14:59:12;7.00;99.90
59007;DHT22;44792;52.760;6.726;2022-12-01T15:01:38;7.00;99.90
59007;DHT22;44792;52.760;6.726;2022-12-01T15:04:05;7.00;99.90
59007;DHT22;44792;52.760;6.726;2022-12-01T15:06:32;7.00;99.90
59007;DHT22;44792;52.760;6.726;2022-12-01T15:11:29;6.90;99.90
59007;DHT22;44792;52.760;6.726;2022-12-01T15:13:56;7.00;99.90
59007;DHT22;44792;52.760;6.726;2022-12-01T15:16:24;7.00;99.90
59007;DHT22;44792;52.760;6.726;2022-12-01T15:18:51;7.00;99.90
59007;DHT22;44792;52.760;6.726;2022-12-01T15:21:28;7.00;99.90
59007;DHT22;44792;52.760;6.726;2022-12-01T15:24:18;7.00;99.90
59007;DHT22;44792;52.760;6.726;2022-12-01T15:26:47;7.00;99.90
59007;DHT22;44792;52.760;6.726;2022-12-01T15:29:25;6.90;99.90
59007;DHT22;44792;52.760;6.726;2022-12-01T15:31:53;7.00;99.90
59007;DHT22;44792;52.760;6.726;2022-12-01T15:34:34;7.00;99.90
59007;DHT22;44792;52.760;6.726;2022-12-01T15:37:13;6.90;99.90
59007;DHT22;44792;52.760;6.726;2022-12-01T15:39:43;6.80;99.90
59007;DHT22;44792;52.760;6.726;2022-12-01T15:42:31;6.70;99.90
59007;DHT22;44792;52.760;6.726;2022-12-01T15:45:03;6.70;99.90
59007;DHT22;44792;52.760;6.726;2022-12-01T15:50:29;6.70;99.90
59007;DHT22;44792;52.760;6.726;2022-12-01T15:52:56;6.70;99.90
59007;DHT22;44792;52.760;6.726;2022-12-01T15:55:27;6.70;99.90
59007;DHT22;44792;52.760;6.726;2022-12-01T15:57:53;6.60;99.90
59007;DHT22;44792;52.760;6.726;2022-12-01T16:00:20;6.60;99.90
59007;DHT22;44792;52.760;6.726;2022-12-01T16:02:53;6.60;99.90
59007;DHT22;44792;52.760;6.726;2022-12-01T16:05:23;6.70;99.90
59007;DHT22;44792;52.760;6.726;2022-12-01T16:07:50;6.70;99.90
59007;DHT22;44792;52.760;6.726;2022-12-01T16:10:34;6.70;99.90
59007;DHT22;44792;52.760;6.726;2022-12-01T16:13:37;6.70;99.90
59007;DHT22;44792;52.760;6.726;2022-12-01T16:16:35;6.80;99.90
59007;DHT22;44792;52.760;6.726;2022-12-01T16:19:03;6.80;99.90
59007;DHT22;44792;52.760;6.726;2022-12-01T16:21:33;6.80;99.90
59007;DHT22;44792;52.760;6.726;2022-12-01T16:24:01;6.80;99.90
59007;DHT22;44792;52.760;6.726;2022-12-01T16:26:27;6.70;99.90
59007;DHT22;44792;52.760;6.726;2022-12-01T16:28:54;6.70;99.90
59007;DHT22;44792;52.760;6.726;2022-12-01T16:31:20;6.70;99.90
59007;DHT22;44792;52.760;6.726;2022-12-01T16:33:46;6.70;99.90
59007;DHT22;44792;52.760;6.726;2022-12-01T16:36:12;6.60;99.90
59007;DHT22;44792;52.760;6.726;2022-12-01T16:38:40;6.60;99.90
59007;DHT22;44792;52.760;6.726;2022-12-01T16:41:17;6.60;99.90
59007;DHT22;44792;52.760;6.726;2022-12-01T16:43:48;6.60;99.90
59007;DHT22;44792;52.760;6.726;2022-12-01T16:46:14;6.60;99.90
59007;DHT22;44792;52.760;6.726;2022-12-01T16:48:39;6.60;99.90
59007;DHT22;44792;52.760;6.726;2022-12-01T16:51:06;6.50;99.90
59007;DHT22;44792;52.760;6.726;2022-12-01T16:53:32;6.50;99.90
59007;DHT22;44792;52.760;6.726;2022-12-01T16:56:00;6.40;99.90
59007;DHT22;44792;52.760;6.726;2022-12-01T16:58:26;6.40;99.90
59007;DHT22;44792;52.760;6.726;2022-12-01T17:00:52;6.30;99.90
59007;DHT22;44792;52.760;6.726;2022-12-01T17:03:23;6.40;99.90
59007;DHT22;44792;52.760;6.726;2022-12-01T17:05:50;6.40;99.90
59007;DHT22;44792;52.760;6.726;2022-12-01T17:08:16;6.40;99.90
59007;DHT22;44792;52.760;6.726;2022-12-01T17:10:43;6.40;99.90
59007;DHT22;44792;52.760;6.726;2022-12-01T17:13:10;6.40;99.90
59007;DHT22;44792;52.760;6.726;2022-12-01T17:15:43;6.40;99.90
59007;DHT22;44792;52.760;6.726;2022-12-01T17:18:13;6.30;99.90
59007;DHT22;44792;52.760;6.726;2022-12-01T17:20:39;6.30;99.90
59007;DHT22;44792;52.760;6.726;2022-12-01T17:23:06;6.30;99.90
59007;DHT22;44792;52.760;6.726;2022-12-01T17:25:32;6.30;99.90
59007;DHT22;44792;52.760;6.726;2022-12-01T17:27:58;6.30;99.90
59007;DHT22;44792;52.760;6.726;2022-12-01T17:30:23;6.30;99.90
59007;DHT22;44792;52.760;6.726;2022-12-01T17:32:49;6.30;99.90
59007;DHT22;44792;52.760;6.726;2022-12-01T17:35:15;6.20;99.90
59007;DHT22;44792;52.760;6.726;2022-12-01T17:37:40;6.20;99.90
59007;DHT22;44792;52.760;6.726;2022-12-01T17:40:08;6.20;99.90
59007;DHT22;44792;52.760;6.726;2022-12-01T17:42:34;6.20;99.90
59007;DHT22;44792;52.760;6.726;2022-12-01T17:45:00;6.20;99.90
59007;DHT22;44792;52.760;6.726;2022-12-01T17:47:26;6.20;99.90
59007;DHT22;44792;52.760;6.726;2022-12-01T17:49:52;6.20;99.90
59007;DHT22;44792;52.760;6.726;2022-12-01T17:52:18;6.10;99.90
59007;DHT22;44792;52.760;6.726;2022-12-01T17:54:44;6.10;99.90
59007;DHT22;44792;52.760;6.726;2022-12-01T17:57:09;6.10;99.90
59007;DHT22;44792;52.760;6.726;2022-12-01T17:59:35;6.10;99.90
59007;DHT22;44792;52.760;6.726;2022-12-01T18:02:02;6.10;99.90
59007;DHT22;44792;52.760;6.726;2022-12-01T18:04:29;6.10;99.90
59007;DHT22;44792;52.760;6.726;2022-12-01T18:06:55;6.10;99.90
59007;DHT22;44792;52.760;6.726;2022-12-01T18:09:21;6.00;99.90
59007;DHT22;44792;52.760;6.726;2022-12-01T18:11:47;6.00;99.90
59007;DHT22;44792;52.760;6.726;2022-12-01T18:14:13;6.10;99.90
59007;DHT22;44792;52.760;6.726;2022-12-01T18:16:42;6.10;99.90
59007;DHT22;44792;52.760;6.726;2022-12-01T18:19:08;6.00;99.90
59007;DHT22;44792;52.760;6.726;2022-12-01T18:21:34;6.00;99.90
59007;DHT22;44792;52.760;6.726;2022-12-01T18:24:02;6.10;99.90
59007;DHT22;44792;52.760;6.726;2022-12-01T18:26:30;6.10;99.90
59007;DHT22;44792;52.760;6.726;2022-12-01T18:29:06;6.00;99.90
59007;DHT22;44792;52.760;6.726;2022-12-01T18:31:32;6.10;99.90
59007;DHT22;44792;52.760;6.726;2022-12-01T18:33:59;6.00;99.90
59007;DHT22;44792;52.760;6.726;2022-12-01T18:36:29;6.00;99.90